X  Stänga Metar väderdata för luftfart        LYNI Nis Airport
Temperatur
26°C Temperatur
10°C Daggpunkt
37% Fuktighet



Vind
1 M/S
3 MPH
6 KM/T
3 KTS



-1°
VRB
Nuvarande omständigheter

Mostly Sunny Mestadels soligt
Tryck 1021 (hPa) - 30.15 (inHg)
Synlighet 6 (mil) - 10 (km)
Flygplats
Flygplatskod LYNI

Plats: Nis Airport
Distans: 63 (km)

Metar:
METAR LYNI 141300Z VRB03KT CAVOK 26/10 Q1022 NOSIG

Tid: 14-04-2024 15:00 CEST